This is the latest recevied weather packets stored in our database for station/object KD5UMO-1. If no packets are shown the sender has not sent any weather packets the latest 10 day(s).
| Time | Temp. | Humidity | Pressure | Rain* | Wind** | Luminosity | Snow |
|---|---|---|---|---|---|---|---|
| 1778085320 | 12.22° C | 91% | 1015.6 hPa | 0 mm | - | 124 W/m² | - |
| 1778085015 | 12.22° C | 91% | 1015.6 hPa | 0 mm | - | 119 W/m² | - |
| 1778084712 | 12.22° C | 91% | 1015.8 hPa | 0 mm | - | 101 W/m² | - |
| 1778084403 | 12.22° C | 91% | 1015.3 hPa | 0 mm | - | 191 W/m² | - |
| 1778084101 | 12.22° C | 92% | 1014.9 hPa | 0 mm | - | 245 W/m² | - |
| 1778083798 | 12.22° C | 93% | 1014.7 hPa | 0 mm | - | 286 W/m² | - |
| 1778083496 | 12.22° C | 93% | 1014 hPa | 0 mm | - | 291 W/m² | - |
| 1778083193 | 12.22° C | 93% | 1013.4 hPa | 0 mm | - | 280 W/m² | - |
| 1778082891 | 12.22° C | 93% | 1014.3 hPa | 0.51 mm | - | 316 W/m² | - |
| 1778081782 | 11.67° C | 87% | 1016.5 hPa | 6.6 mm | - | 31 W/m² | - |
| 1778081480 | 12.22° C | 86% | 1017 hPa | 0.51 mm | - | 14 W/m² | - |
| 1778081177 | 12.22° C | 84% | 1016.7 hPa | 0 mm | - | 13 W/m² | - |
| 1778080874 | 12.22° C | 81% | 1016 hPa | 0 mm | - | 18 W/m² | - |
| 1778080573 | 12.78° C | 81% | 1015 hPa | 0 mm | - | 58 W/m² | - |
| 1778080269 | 12.78° C | 81% | 1015.2 hPa | 0 mm | - | 50 W/m² | - |
| 1778079966 | 12.78° C | 81% | 1014.6 hPa | 0 mm | - | 80 W/m² | - |
| 1778079663 | 12.22° C | 81% | 1014.5 hPa | 0 mm | - | 102 W/m² | - |
| 1778079360 | 12.78° C | 80% | 1015.2 hPa | 0 mm | - | 51 W/m² | - |
| 1778079057 | 12.78° C | 80% | 1014.9 hPa | 0 mm | - | 112 W/m² | - |
| 1778078753 | 12.78° C | 80% | 1014.7 hPa | 0 mm | - | 108 W/m² | - |
| 1778078451 | 12.22° C | 80% | 1014.9 hPa | 0 mm | - | 91 W/m² | - |
| 1778078149 | 12.22° C | 81% | 1015.2 hPa | 0 mm | - | 87 W/m² | - |
| 1778077847 | 12.22° C | 81% | 1015.3 hPa | 0 mm | - | 70 W/m² | - |
| 1778077544 | 12.22° C | 81% | 1015.3 hPa | 0 mm | - | 59 W/m² | - |
| 1778077242 | 12.22° C | 81% | 1014.7 hPa | 0 mm | - | 119 W/m² | - |
* Rain latest hour (hover to see other rain measurements)
** Current wind speed in m/s (hover to see current wind gust speed)